^^
Station Historical Data
Daily Summary for September 17, 2017 Units:  Metric    English   Both
« Previous Day
Next Day »
Daily Weekly Monthly Yearly Custom
  High: Low: Average:
Temperature: 27 °C 12.3 °C 17 °C
Dew Point: 1.5 °C -0.1 °C 0.7 °C
Humidity: 44% 17% 34%
Wind Speed: 6.4km/h 0km/h 0.3km/h
Wind Gust: 16.1km/h - -
Wind- - ESE
Pressure: 1016.8 hPa 1012.4 hPa -
Precipitation: 0 mm    
Historical Graphs
 
 
Tabular Data for September 17, 2017
Time Temperature Dew Point Pressure Wind Wind Speed Wind Gust Humidity Rainfall Rate (Hourly) solar Conditions
00:04 18.1 °C 0.2 °C 1015.8 hPa Calm     30% 0 mm 0.0 W/m2
00:14 18.1 °C 0.2 °C 1015.8 hPa SE 6.4 km/h 9.7 km/h 30% 0 mm 0.0 W/m2
00:19 18.6 °C 0.7 °C 1015.8 hPa ESE 6.4 km/h 11.3 km/h 30% 0 mm 0.0 W/m2
00:24 18.7 °C 0.8 °C 1015.8 hPa Calm     30% 0 mm 0.0 W/m2
00:29 18.4 °C 0.5 °C 1015.8 hPa Calm     30% 0 mm 0.0 W/m2
00:35 18.1 °C 0.7 °C 1015.8 hPa Calm     31% 0 mm 0.0 W/m2
00:40 17.9 °C 0.5 °C 1015.8 hPa Calm     31% 0 mm 0.0 W/m2
00:45 17.6 °C 0.7 °C 1015.5 hPa Calm     32% 0 mm 0.0 W/m2
00:50 17.3 °C 0.9 °C 1015.5 hPa Calm     33% 0 mm 0.0 W/m2
00:55 17.2 °C 1.2 °C 1015.5 hPa Calm     34% 0 mm 0.0 W/m2
01:00 16.9 °C 0.9 °C 1015.5 hPa Calm     34% 0 mm 0.0 W/m2
01:05 16.8 °C 1.2 °C 1015.5 hPa Calm     35% 0 mm 0.0 W/m2
01:11 16.9 °C 1.3 °C 1015.5 hPa Calm     35% 0 mm 0.0 W/m2
01:21 17.3 °C 1.3 °C 1015.5 hPa Calm     34% 0 mm 0.0 W/m2
01:31 17.5 °C 1.5 °C 1015.5 hPa ESE 4.7 km/h 8 km/h 34% 0 mm 0.0 W/m2
01:37 17.6 °C 1.5 °C 1015.5 hPa Calm     34% 0 mm 0.0 W/m2
01:42 17.4 °C 1.4 °C 1015.1 hPa Calm     34% 0 mm 0.0 W/m2
01:47 17.2 °C 1.2 °C 1015.5 hPa Calm     34% 0 mm 0.0 W/m2
01:52 17.1 °C 1.1 °C 1015.5 hPa Calm     34% 0 mm 0.0 W/m2
01:58 16.9 °C 0.9 °C 1015.5 hPa Calm     34% 0 mm 0.0 W/m2
02:03 16.9 °C 0.9 °C 1015.5 hPa Calm     34% 0 mm 0.0 W/m2
02:08 16.8 °C 1.2 °C 1015.5 hPa Calm   4.8 km/h 35% 0 mm 0.0 W/m2
02:13 16.8 °C 1.2 °C 1015.5 hPa Calm   3.2 km/h 35% 0 mm 0.0 W/m2
02:18 16.6 °C 1.1 °C 1015.5 hPa Calm     35% 0 mm 0.0 W/m2
02:23 16.6 °C 1.1 °C 1015.5 hPa Calm     35% 0 mm 0.0 W/m2
02:29 16.4 °C 0.9 °C 1015.5 hPa Calm     35% 0 mm 0.0 W/m2
02:39 16.3 °C 0.8 °C 1015.1 hPa Calm   4.8 km/h 35% 0 mm 0.0 W/m2
02:44 16.2 °C 0.7 °C 1015.1 hPa Calm     35% 0 mm 0.0 W/m2
02:50 16.2 °C 0.7 °C 1015.1 hPa Calm   4.8 km/h 35% 0 mm 0.0 W/m2
02:55 16.1 °C 0.6 °C 1015.1 hPa Calm     35% 0 mm 0.0 W/m2
03:00 15.8 °C 0.8 °C 1015.1 hPa Calm     36% 0 mm 0.0 W/m2
03:05 15.6 °C 0.6 °C 1015.1 hPa Calm     36% 0 mm 0.0 W/m2
03:10 15.3 °C 0.3 °C 1015.1 hPa Calm     36% 0 mm 0.0 W/m2
03:16 14.9 °C 0.3 °C 1015.1 hPa Calm     37% 0 mm 0.0 W/m2
03:26 14.5 °C 0.3 °C 1015.1 hPa Calm     38% 0 mm 0.0 W/m2
03:31 14.3 °C 0.5 °C 1015.1 hPa Calm     39% 0 mm 0.0 W/m2
03:36 14.1 °C 0.3 °C 1015.1 hPa Calm     39% 0 mm 0.0 W/m2
03:41 14 °C 0.6 °C 1015.1 hPa Calm     40% 0 mm 0.0 W/m2
03:46 14.1 °C 0.7 °C 1014.8 hPa Calm     40% 0 mm 0.0 W/m2
03:52 14.1 °C 0.7 °C 1014.8 hPa Calm     40% 0 mm 0.0 W/m2
04:02 13.9 °C 0.2 °C 1015.1 hPa Calm     39% 0 mm 0.0 W/m2
04:07 13.7 °C 0.3 °C 1014.8 hPa Calm   1.6 km/h 40% 0 mm 0.0 W/m2
04:12 13.6 °C 0.6 °C 1014.8 hPa Calm     41% 0 mm 0.0 W/m2
04:17 13.7 °C 0.7 °C 1014.8 hPa Calm   1.6 km/h 41% 0 mm 0.0 W/m2
04:22 13.7 °C 0.7 °C 1014.8 hPa Calm     41% 0 mm 0.0 W/m2
04:33 13.7 °C 0.7 °C 1014.8 hPa Calm   6.4 km/h 41% 0 mm 0.0 W/m2
04:38 13.9 °C 0.9 °C 1014.8 hPa Calm   4.8 km/h 41% 0 mm 0.0 W/m2
04:43 14 °C 0.9 °C 1014.4 hPa Calm   3.2 km/h 41% 0 mm 0.0 W/m2
04:48 14 °C 0.9 °C 1014.4 hPa Calm   3.2 km/h 41% 0 mm 0.0 W/m2
04:59 13.9 °C 0.9 °C 1014.4 hPa Calm     41% 0 mm 0.0 W/m2
05:04 13.8 °C 0.8 °C 1014.4 hPa Calm     41% 0 mm 0.0 W/m2
05:09 13.8 °C 0.8 °C 1014.8 hPa Calm     41% 0 mm 0.0 W/m2
05:20 13.7 °C 0.7 °C 1014.8 hPa Calm     41% 0 mm 0.0 W/m2
05:36 13.5 °C 0.5 °C 1014.8 hPa Calm     41% 0 mm 0.0 W/m2
05:41 13.4 °C 0.7 °C 1014.8 hPa Calm     42% 0 mm 0.0 W/m2
05:47 13.4 °C 0.7 °C 1014.4 hPa Calm   1.6 km/h 42% 0 mm 0.0 W/m2
05:52 13.6 °C 0.6 °C 1014.4 hPa Calm     41% 0 mm 0.0 W/m2
05:57 13.5 °C 0.5 °C 1014.4 hPa Calm     41% 0 mm 0.0 W/m2
06:03 13.5 °C 0.5 °C 1014.4 hPa Calm     41% 0 mm 0.0 W/m2
06:08 13.6 °C 0.2 °C 1014.4 hPa Calm     40% 0 mm 0.0 W/m2
06:14 13.5 °C 0.5 °C 1014.4 hPa Calm     41% 0 mm 0.0 W/m2
06:19 13.3 °C 0.3 °C 1014.8 hPa Calm     41% 0 mm 0.0 W/m2
06:24 13.2 °C 0.2 °C 1014.8 hPa Calm     41% 0 mm 0.0 W/m2
06:30 13.5 °C 0.5 °C 1014.8 hPa Calm     41% 0 mm 0.0 W/m2
06:36 13.8 °C 0.8 °C 1014.8 hPa Calm     41% 0 mm 0.0 W/m2
06:39 13.8 °C 0.4 °C 1014.8 hPa Calm     40% 0 mm 0.0 W/m2
06:46 13.6 °C 0.2 °C 1014.8 hPa Calm     40% 0 mm 5.0 W/m2
06:52 13.1 °C 0.1 °C 1014.8 hPa Calm     41% 0 mm 7.0 W/m2
07:37 12.3 °C 0.4 °C 1015.5 hPa Calm     44% 0 mm 97.0 W/m2
08:54 18.5 °C 1 °C 1016.8 hPa Calm     31% 0 mm 394.0 W/m2
09:09 19.8 °C 1.2 °C 1016.8 hPa Calm     29% 0 mm 443.0 W/m2
09:50 20.8 °C 1.1 °C 1016.8 hPa Calm     27% 0 mm 568.0 W/m2
10:06 21.3 °C 1 °C 1016.8 hPa Calm     26% 0 mm 615.0 W/m2
10:21 21.7 °C 0.8 °C 1016.5 hPa Calm     25% 0 mm 654.0 W/m2
10:37 22.2 °C 1.2 °C 1016.1 hPa Calm     25% 0 mm 693.0 W/m2
11:15 23.2 °C 0.9 °C 1015.8 hPa ESE 6.4 km/h 8 km/h 23% 0 mm 772.0 W/m2
11:43 23.7 °C 0.7 °C 1015.8 hPa Calm     22% 0 mm 810.0 W/m2
11:58 24.1 °C 0.4 °C 1015.5 hPa Calm     21% 0 mm 828.0 W/m2
12:12 24.6 °C 0.8 °C 1015.1 hPa Calm     21% 0 mm 838.0 W/m2
12:39 25.3 °C 0.7 °C 1014.4 hPa Calm     20% 0 mm 847.0 W/m2
13:10 26.1 °C 0.7 °C 1013.8 hPa Calm     19% 0 mm 847.0 W/m2
13:24 26.3 °C 0.1 °C 1013.4 hPa ESE 3.2 km/h 9.7 km/h 18% 0 mm 835.0 W/m2
13:50 26.4 °C 0.2 °C 1013.1 hPa Calm     18% 0 mm 810.0 W/m2
14:01 26.6 °C 0.3 °C 1012.8 hPa Calm   8 km/h 18% 0 mm 795.0 W/m2
14:15 26.7 °C 0.4 °C 1012.8 hPa Calm   16.1 km/h 18% 0 mm 773.0 W/m2
14:46 27 °C -0.1 °C 1012.4 hPa Calm     17% 0 mm 719.0 W/m2
Canyon Roadhouse, Fishriver Canyon, Namibia
Compliments of Weather Underground - 2 mb